Time;durP1;ratioP1;P1;durP2;ratioP2;P2;SDS_P1;SDS_P2;PMS_P1;PMS_P2;Temp;Humidity;BMP_temperature;BMP_pressure;BME280_temperature;BME280_humidity;BME280_pressure;Samples;Min_cycle;Max_cycle;Signal;HPM_P1;HPM_P2
2021/01/14 00:03:06;;;;;;;4.22;1.67;;;;;;;3.22;80.45;98855.80;2844788;83;21581;-67
2021/01/14 00:07:09;;;;;;;3.72;2.77;;;;;;;3.23;80.39;98849.59;2870027;83;21704;-67
2021/01/14 00:11:13;;;;;;;5.58;2.22;;;;;;;3.21;81.21;98862.47;2869109;83;21120;-67
2021/01/14 00:15:18;;;;;;;7.40;3.80;;;;;;;3.17;81.61;98859.25;2835710;84;21138;-66
2021/01/14 00:19:21;;;;;;;2.15;1.95;;;;;;;3.17;81.55;98859.25;2868996;83;21596;-66
2021/01/14 00:23:24;;;;;;;2.95;2.67;;;;;;;3.17;81.23;98864.51;2869018;83;21594;-66
2021/01/14 00:27:27;;;;;;;3.98;2.12;;;;;;;3.20;81.10;98861.65;2855519;81;21169;-66
2021/01/14 00:31:30;;;;;;;3.15;2.05;;;;;;;3.17;81.22;98863.19;2803592;84;21197;-66
2021/01/14 00:35:33;;;;;;;5.83;3.00;;;;;;;3.09;81.55;98866.84;2834717;83;21181;-66
2021/01/14 00:39:36;;;;;;;1.65;1.55;;;;;;;3.03;81.44;98856.80;2861382;83;21570;-65
2021/01/14 00:43:39;;;;;;;2.92;1.42;;;;;;;2.78;82.33;98871.72;2861319;81;21540;-66
2021/01/14 00:47:42;;;;;;;2.67;1.92;;;;;;;2.61;83.21;98879.02;2859621;82;21160;-66
2021/01/14 00:51:45;;;;;;;4.47;2.30;;;;;;;2.64;83.34;98885.82;2861610;83;21124;-66
2021/01/14 00:55:48;;;;;;;3.60;1.60;;;;;;;2.69;83.45;98892.42;2855618;82;21193;-66
2021/01/14 00:59:51;;;;;;;6.12;3.25;;;;;;;2.62;83.97;98915.29;2803703;84;21576;-66
2021/01/14 01:03:55;;;;;;;17.30;2.72;;;;;;;2.61;84.23;98904.42;2804413;83;21169;-66
2021/01/14 01:07:59;;;;;;;7.47;4.75;;;;;;;2.61;84.07;98917.55;2804576;84;21193;-66
2021/01/14 01:12:04;;;;;;;8.15;4.87;;;;;;;2.60;83.85;98923.30;2803292;83;21156;-66
2021/01/14 01:16:07;;;;;;;22.00;8.98;;;;;;;2.65;83.46;98930.36;2803865;84;21173;-66
2021/01/14 01:20:12;;;;;;;11.50;3.77;;;;;;;2.65;83.32;98926.87;2807729;83;21548;-66
2021/01/14 01:24:15;;;;;;;4.95;3.15;;;;;;;2.61;82.84;98918.41;2860694;83;21136;-66
2021/01/14 01:28:19;;;;;;;3.42;2.37;;;;;;;2.58;82.48;98929.13;2861370;83;21582;-65
2021/01/14 01:32:21;;;;;;;1.95;1.67;;;;;;;2.57;82.05;98928.77;2858374;82;21157;-65
2021/01/14 01:36:24;;;;;;;3.08;2.12;;;;;;;2.49;81.56;98937.17;2803866;84;21220;-66
2021/01/14 01:40:27;;;;;;;4.83;3.25;;;;;;;2.46;81.71;98941.33;2804152;84;21169;-66
2021/01/14 01:44:32;;;;;;;5.05;3.05;;;;;;;2.49;81.73;98941.11;2803865;83;21624;-66
2021/01/14 01:48:35;;;;;;;7.33;2.67;;;;;;;2.50;81.17;98943.25;2804288;83;21181;-66
2021/01/14 01:52:39;;;;;;;3.87;2.02;;;;;;;2.48;80.86;98954.33;2804513;84;21169;-65
2021/01/14 01:56:49;;;;;;;3.42;2.20;;;;;;;2.48;80.76;98953.88;2806410;84;21699;-65
2021/01/14 02:00:52;;;;;;;2.55;2.35;;;;;;;2.51;80.68;98961.53;2813509;84;21658;-65
2021/01/14 02:04:57;;;;;;;2.08;1.50;;;;;;;2.49;81.13;98956.01;2813884;84;21125;-65
2021/01/14 02:09:04;;;;;;;3.77;2.30;;;;;;;2.56;81.37;98963.84;2813697;84;21137;-65
2021/01/14 02:13:41;;;;;;;1.87;1.65;;;;;;;2.58;81.26;98959.31;2813149;84;21491;-65
2021/01/14 02:17:44;;;;;;;4.72;2.52;;;;;;;2.50;81.34;98964.25;2871259;82;21670;-65
2021/01/14 02:21:51;;;;;;;2.02;1.87;;;;;;;2.48;81.42;98972.25;2870951;82;21116;-65
2021/01/14 02:26:23;;;;;;;4.85;2.22;;;;;;;2.41;81.56;98974.45;2872589;82;21116;-65
2021/01/14 02:30:26;;;;;;;3.60;2.45;;;;;;;2.38;81.55;98977.30;2871268;82;21602;-65
2021/01/14 02:34:29;;;;;;;5.25;2.60;;;;;;;2.34;81.32;98981.05;2871003;82;21148;-66
2021/01/14 02:38:34;;;;;;;2.52;2.33;;;;;;;2.20;80.85;98978.06;2871064;82;21144;-65
2021/01/14 02:42:37;;;;;;;2.95;2.02;;;;;;;2.14;80.89;98989.81;2871027;81;22262;-65
2021/01/14 02:46:40;;;;;;;1.55;1.32;;;;;;;2.12;79.77;98986.45;2871236;82;21171;-65
2021/01/14 02:50:45;;;;;;;5.25;2.50;;;;;;;2.04;79.40;98983.52;2871034;82;21132;-66
2021/01/14 02:54:49;;;;;;;3.25;1.50;;;;;;;1.98;79.24;99003.61;2870922;81;21152;-65
2021/01/14 02:58:57;;;;;;;5.00;2.95;;;;;;;1.95;78.64;98999.86;2871533;82;21127;-65
2021/01/14 03:03:00;;;;;;;5.80;4.58;;;;;;;1.95;78.64;98999.86;2871276;82;21148;-65
2021/01/14 03:07:04;;;;;;;5.03;3.00;;;;;;;1.96;78.13;99012.88;2871594;82;21156;-65
2021/01/14 03:11:07;;;;;;;5.33;3.12;;;;;;;2.03;78.11;98994.95;2871537;82;21124;-65
2021/01/14 03:15:11;;;;;;;4.90;2.95;;;;;;;2.00;77.85;98996.48;2871695;82;21255;-65
2021/01/14 03:19:14;;;;;;;4.05;1.92;;;;;;;2.04;78.15;99008.44;2871686;81;21112;-65
2021/01/14 03:23:17;;;;;;;7.40;3.83;;;;;;;2.00;78.11;99016.97;2871607;81;21482;-65
2021/01/14 03:27:20;;;;;;;3.00;2.80;;;;;;;1.97;78.58;99022.92;2871608;82;21163;-65
2021/01/14 03:31:23;;;;;;;4.37;2.47;;;;;;;1.93;78.69;99030.59;2871631;82;21152;-65
2021/01/14 03:35:26;;;;;;;6.08;2.85;;;;;;;1.92;78.83;99031.09;2871744;82;21147;-66
2021/01/14 03:39:30;;;;;;;3.75;1.80;;;;;;;1.74;79.26;99021.31;2866221;81;21182;-66
2021/01/14 03:43:33;;;;;;;2.33;1.80;;;;;;;1.74;79.26;99021.31;2831206;84;21156;-65
2021/01/14 03:47:36;;;;;;;3.60;2.08;;;;;;;1.82;79.53;99036.09;2857890;83;21190;-65
2021/01/14 03:51:42;;;;;;;7.83;2.25;;;;;;;1.83;79.54;99044.33;2857060;81;21171;-66
2021/01/14 03:55:45;;;;;;;4.83;2.85;;;;;;;1.84;79.61;99056.50;2857770;83;21126;-65
2021/01/14 03:59:49;;;;;;;2.95;1.90;;;;;;;1.79;79.63;99063.83;2825067;83;21621;-65
2021/01/14 04:03:52;;;;;;;2.85;2.52;;;;;;;1.81;79.70;99057.16;2819880;83;21170;-65
2021/01/14 04:07:55;;;;;;;3.52;2.67;;;;;;;1.91;79.64;99050.84;2819453;83;21447;-65
2021/01/14 04:11:58;;;;;;;2.83;2.47;;;;;;;1.83;79.52;99060.06;2820027;83;21158;-64
2021/01/14 04:16:04;;;;;;;5.05;2.45;;;;;;;1.78;79.47;99066.09;2821464;84;21185;-64
2021/01/14 04:20:08;;;;;;;5.08;2.83;;;;;;;1.75;79.67;99076.75;2821398;83;21158;-75
2021/01/14 04:24:12;;;;;;;15.18;2.37;;;;;;;1.66;79.86;99086.05;2820812;83;21170;-72
2021/01/14 04:28:16;;;;;;;4.00;2.00;;;;;;;1.57;80.29;99101.06;2821346;84;21189;-73
2021/01/14 04:32:22;;;;;;;3.33;2.77;;;;;;;1.54;80.59;99102.58;2821462;83;21190;-75
2021/01/14 04:36:25;;;;;;;3.93;2.67;;;;;;;1.47;81.10;99108.67;2821554;83;22116;-72
2021/01/14 04:40:28;;;;;;;4.10;2.05;;;;;;;1.50;80.98;99108.47;2821264;83;21174;-73
2021/01/14 04:44:32;;;;;;;6.17;2.72;;;;;;;1.33;81.06;99100.83;2821533;83;21162;-74
2021/01/14 04:48:42;;;;;;;3.10;2.02;;;;;;;1.33;81.06;99100.83;2819997;83;21135;-73
2021/01/14 04:52:48;;;;;;;3.47;2.22;;;;;;;1.23;81.14;99086.15;2821010;83;21624;-74
2021/01/14 04:56:54;;;;;;;3.47;2.60;;;;;;;1.35;81.25;99126.46;2820031;83;21139;-72
2021/01/14 05:00:59;;;;;;;5.80;3.22;;;;;;;1.24;81.54;99127.98;2820596;83;21627;-71
2021/01/14 05:05:04;;;;;;;3.45;3.15;;;;;;;1.22;81.90;99143.41;2819963;83;21572;-71
2021/01/14 05:09:08;;;;;;;12.70;7.10;;;;;;;1.13;81.80;99135.20;2819655;83;21752;-76
2021/01/14 05:13:12;;;;;;;12.65;5.85;;;;;;;1.25;81.80;99145.38;2828499;83;21562;-72
2021/01/14 05:17:16;;;;;;;11.93;3.37;;;;;;;1.27;81.65;99161.84;2822188;82;21191;-72
2021/01/14 05:21:20;;;;;;;6.17;3.60;;;;;;;1.29;81.67;99167.01;2816813;83;21605;-75
2021/01/14 05:25:23;;;;;;;9.73;5.12;;;;;;;1.24;81.54;99173.83;2813880;83;21565;-71
2021/01/14 05:29:26;;;;;;;9.40;4.95;;;;;;;1.18;81.66;99184.69;2820368;83;21166;-77
2021/01/14 05:33:29;;;;;;;13.45;7.42;;;;;;;1.13;81.91;99182.80;2830332;83;21156;-77
2021/01/14 05:37:36;;;;;;;14.33;8.35;;;;;;;1.18;82.38;99190.38;2841278;82;21117;-77
2021/01/14 05:41:39;;;;;;;12.63;7.62;;;;;;;1.25;82.77;99206.09;2841871;82;21160;-76
2021/01/14 05:45:42;;;;;;;19.35;9.88;;;;;;;1.32;82.62;99211.81;2841252;83;21197;-78
2021/01/14 05:50:06;;;;;;;11.12;6.92;;;;;;;1.32;82.62;99211.81;2841873;82;21152;-75
2021/01/14 05:54:12;;;;;;;5.80;5.12;;;;;;;1.36;82.62;99219.41;2841709;82;21643;-74
2021/01/14 05:58:20;;;;;;;8.60;5.65;;;;;;;1.36;82.62;99219.41;2833191;83;21113;-75
2021/01/14 06:02:31;;;;;;;4.53;3.77;;;;;;;1.28;82.59;99217.24;2807545;83;21176;-75
2021/01/14 06:06:35;;;;;;;6.75;4.50;;;;;;;1.11;82.56;99213.03;2804498;84;21661;-74
2021/01/14 06:10:39;;;;;;;3.77;3.33;;;;;;;1.14;82.88;99251.28;2804383;84;21141;-76
2021/01/14 06:14:42;;;;;;;7.45;3.92;;;;;;;1.05;83.32;99246.59;2804419;84;21177;-75
2021/01/14 06:19:08;;;;;;;4.15;3.62;;;;;;;1.15;83.78;99256.89;2804534;84;21193;-76
2021/01/14 06:23:11;;;;;;;6.17;4.30;;;;;;;1.24;84.05;99260.74;2810349;83;21177;-77
2021/01/14 06:27:14;;;;;;;7.33;5.58;;;;;;;1.33;83.91;99282.48;2755710;85;21165;-76
2021/01/14 06:31:24;;;;;;;5.67;4.15;;;;;;;1.51;83.84;99285.77;2797628;83;21180;-76
2021/01/14 06:35:28;;;;;;;9.68;5.50;;;;;;;1.58;83.67;99294.59;2801287;83;21170;-76
2021/01/14 06:39:36;;;;;;;5.42;4.92;;;;;;;1.58;83.67;99294.59;2800897;85;21134;-75
2021/01/14 06:43:42;;;;;;;5.37;3.50;;;;;;;1.65;83.80;99310.31;2829912;82;21164;-77
2021/01/14 06:47:48;;;;;;;6.83;4.47;;;;;;;1.56;83.77;99296.80;2858641;83;21437;-77
2021/01/14 06:51:57;;;;;;;6.85;3.72;;;;;;;1.69;83.81;99332.78;2858183;82;21168;-75
2021/01/14 06:56:00;;;;;;;6.45;3.52;;;;;;;1.75;83.84;99331.09;2858225;82;21192;-78
2021/01/14 07:00:08;;;;;;;9.85;6.67;;;;;;;1.66;83.49;99334.28;2865234;82;21159;-76
2021/01/14 07:04:21;;;;;;;12.65;8.50;;;;;;;1.76;83.82;99347.68;2853364;83;21144;-76
2021/01/14 07:08:36;;;;;;;35.80;13.15;;;;;;;1.85;83.33;99365.02;2801870;83;22211;-75
2021/01/14 07:12:43;;;;;;;33.95;16.55;;;;;;;1.78;83.03;99360.23;2803518;84;21165;-74
2021/01/14 07:16:52;;;;;;;13.68;8.10;;;;;;;1.94;83.13;99386.36;2803276;84;21177;-76
2021/01/14 07:21:03;;;;;;;10.98;5.35;;;;;;;2.01;82.94;99392.94;2801462;84;21164;-76
2021/01/14 07:25:09;;;;;;;25.52;11.00;;;;;;;1.95;82.82;99405.09;2769649;84;21205;-76
2021/01/14 07:29:14;;;;;;;;;;;;;;;2.05;82.79;99419.36;2806772;83;21173;-76
2021/01/14 07:33:27;;;;;;;12.45;6.28;;;;;;;2.11;82.75;99430.78;2818773;83;20161;-75
2021/01/14 07:37:56;;;;;;;17.98;9.58;;;;;;;2.16;82.71;99440.16;2816648;82;21172;-75
2021/01/14 07:41:59;;;;;;;13.75;7.37;;;;;;;2.21;82.57;99444.67;2818953;83;21239;-76
2021/01/14 07:46:21;;;;;;;13.08;4.70;;;;;;;2.25;82.43;99453.56;2844366;83;22316;-74
2021/01/14 07:50:28;;;;;;;7.67;6.50;;;;;;;2.28;82.46;99458.65;2844322;83;21599;-74
2021/01/14 07:54:32;;;;;;;10.43;5.67;;;;;;;2.28;82.66;99469.15;2844422;83;21571;-77
2021/01/14 07:58:36;;;;;;;9.18;5.72;;;;;;;2.33;82.72;99468.02;2844632;82;21136;-76
2021/01/14 08:03:14;;;;;;;12.68;8.65;;;;;;;2.31;82.88;99483.84;2844529;83;21137;-77
2021/01/14 08:07:22;;;;;;;12.45;8.00;;;;;;;2.36;83.11;99488.83;2844301;83;21129;-75
2021/01/14 08:11:30;;;;;;;13.20;9.63;;;;;;;2.34;83.09;99500.72;2844143;82;21148;-76
2021/01/14 08:15:36;;;;;;;12.25;7.20;;;;;;;2.35;83.29;99511.59;2843969;83;21875;-75
2021/01/14 08:19:39;;;;;;;12.33;6.40;;;;;;;2.34;83.33;99513.84;2844555;83;21169;-74
2021/01/14 08:23:46;;;;;;;8.45;6.30;;;;;;;2.31;83.61;99529.77;2844272;83;21157;-77
2021/01/14 08:27:54;;;;;;;8.40;6.60;;;;;;;2.42;83.51;99540.48;2844863;83;21639;-75
2021/01/14 08:31:57;;;;;;;8.10;4.33;;;;;;;2.47;83.41;99536.28;2842047;82;21137;-76
2021/01/14 08:36:06;;;;;;;7.40;5.30;;;;;;;2.46;83.29;99554.73;2840167;83;21598;-76
2021/01/14 08:40:17;;;;;;;29.52;10.63;;;;;;;2.48;83.43;99558.11;2844709;82;21165;-77
2021/01/14 08:44:26;;;;;;;19.10;9.65;;;;;;;2.48;83.47;99566.84;2844294;82;21181;-76
2021/01/14 08:48:30;;;;;;;27.55;15.05;;;;;;;2.51;83.66;99585.50;2844166;83;21125;-74
2021/01/14 08:52:35;;;;;;;11.57;9.05;;;;;;;2.51;83.89;99591.60;2844245;83;21141;-75
2021/01/14 08:56:39;;;;;;;7.55;5.03;;;;;;;2.46;84.22;99605.48;2844615;83;21713;-75
2021/01/14 09:00:48;;;;;;;15.30;6.95;;;;;;;2.46;84.69;99617.30;2844302;81;21153;-75
2021/01/14 09:04:56;;;;;;;24.95;10.75;;;;;;;2.50;84.75;99635.00;2844495;82;21141;-75
2021/01/14 09:09:02;;;;;;;11.30;7.97;;;;;;;2.51;84.96;99640.17;2844064;83;21169;-74
2021/01/14 09:13:09;;;;;;;19.00;10.83;;;;;;;2.55;84.97;99652.18;2844866;83;21152;-76
2021/01/14 09:17:16;;;;;;;15.53;9.90;;;;;;;2.60;84.84;99666.81;2844823;82;21616;-75
2021/01/14 09:21:18;;;;;;;18.07;11.65;;;;;;;2.65;84.95;99668.70;2845405;80;21148;-76
2021/01/14 09:25:34;;;;;;;17.90;11.43;;;;;;;2.72;84.97;99681.86;2844729;83;21627;-76
2021/01/14 09:29:37;;;;;;;21.12;12.55;;;;;;;2.71;84.79;99689.37;2844478;82;21192;-74
2021/01/14 09:33:43;;;;;;;21.95;15.53;;;;;;;2.76;84.86;99696.98;2844465;83;21647;-74
2021/01/14 09:37:48;;;;;;;17.50;10.30;;;;;;;2.76;84.85;99703.55;2844748;83;21168;-77
2021/01/14 09:41:55;;;;;;;18.10;9.25;;;;;;;2.82;84.86;99703.18;2844056;82;21133;-77
2021/01/14 09:45:58;;;;;;;15.60;10.23;;;;;;;2.82;84.92;99709.75;2844700;83;21100;-76
2021/01/14 09:50:02;;;;;;;20.23;12.98;;;;;;;2.86;84.84;99723.07;2844571;83;21602;-75
2021/01/14 09:54:10;;;;;;;15.90;10.68;;;;;;;2.99;84.98;99731.94;2844456;83;21146;-76
2021/01/14 09:58:18;;;;;;;24.40;16.50;;;;;;;3.04;85.02;99738.69;2844358;82;21687;-75
2021/01/14 10:02:27;;;;;;;25.88;15.85;;;;;;;3.17;84.77;99744.05;2866173;82;21132;-74
2021/01/14 10:06:37;;;;;;;25.65;16.87;;;;;;;3.34;84.66;99745.20;2866350;83;21124;-76
2021/01/14 10:10:41;;;;;;;26.05;17.92;;;;;;;3.49;84.18;99756.57;2867240;82;21571;-74
2021/01/14 10:14:44;;;;;;;27.70;19.85;;;;;;;3.61;83.99;99764.17;2866227;83;21610;-74
2021/01/14 10:18:48;;;;;;;31.20;20.85;;;;;;;3.71;83.57;99766.63;2866216;83;21120;-75
2021/01/14 10:22:53;;;;;;;36.85;23.22;;;;;;;3.71;83.12;99777.61;2866392;83;21152;-74
2021/01/14 10:27:18;;;;;;;33.35;23.35;;;;;;;3.70;83.25;99789.08;2866453;83;21151;-77
2021/01/14 10:31:38;;;;;;;34.18;23.75;;;;;;;3.68;83.22;99793.59;2866256;83;21108;-76
2021/01/14 10:35:43;;;;;;;37.90;26.05;;;;;;;3.72;83.05;99802.98;2866479;83;21124;-76
2021/01/14 10:39:46;;;;;;;44.40;25.88;;;;;;;3.77;82.79;99806.20;2866338;83;21140;-75
2021/01/14 10:43:49;;;;;;;44.65;28.00;;;;;;;3.79;82.47;99813.52;2866250;81;21132;-74
2021/01/14 10:48:16;;;;;;;45.12;27.22;;;;;;;3.85;82.29;99822.83;2866481;83;21176;-75
2021/01/14 10:52:19;;;;;;;46.75;28.60;;;;;;;3.88;81.79;99827.04;2866427;81;21602;-77
2021/01/14 10:56:21;;;;;;;47.15;27.00;;;;;;;3.94;81.45;99846.42;2860097;83;21741;-75
2021/01/14 11:00:28;;;;;;;46.20;27.95;;;;;;;3.96;81.28;99850.63;2822042;83;21155;-74
2021/01/14 11:04:31;;;;;;;55.50;30.10;;;;;;;3.99;81.07;99860.14;2852814;83;21129;-72
2021/01/14 11:08:44;;;;;;;43.90;26.87;;;;;;;3.98;80.87;99865.03;2851900;83;21157;-73
2021/01/14 11:13:09;;;;;;;58.25;31.65;;;;;;;4.00;80.46;99863.97;2851483;83;21157;-73
2021/01/14 11:17:15;;;;;;;36.48;24.25;;;;;;;4.05;80.43;99874.72;2882378;82;21124;-72
2021/01/14 11:21:31;;;;;;;46.18;27.48;;;;;;;4.08;79.89;99878.47;2879183;82;21566;-72
2021/01/14 11:25:36;;;;;;;42.40;24.67;;;;;;;4.06;79.60;99883.81;2882426;82;21147;-72
2021/01/14 11:29:39;;;;;;;39.10;22.90;;;;;;;4.02;79.57;99888.89;2882173;81;21144;-72
2021/01/14 11:33:43;;;;;;;42.30;23.22;;;;;;;3.97;79.57;99881.27;2871645;81;21175;-77
2021/01/14 11:37:46;;;;;;;37.90;23.15;;;;;;;4.01;79.53;99903.00;2861315;83;22231;-74
2021/01/14 11:41:52;;;;;;;35.73;21.68;;;;;;;3.99;79.05;99902.25;2861540;81;21161;-72
2021/01/14 11:45:56;;;;;;;31.57;20.92;;;;;;;4.00;78.84;99906.56;2861512;83;21152;-77
2021/01/14 11:49:59;;;;;;;32.67;20.82;;;;;;;4.02;78.54;99909.09;2861765;83;21153;-74
2021/01/14 11:54:03;;;;;;;30.45;20.68;;;;;;;4.05;78.53;99911.08;2861757;83;21911;-77
2021/01/14 11:58:07;;;;;;;30.60;20.48;;;;;;;4.07;78.19;99922.84;2862670;83;21156;-73
2021/01/14 12:02:10;;;;;;;32.42;21.70;;;;;;;3.97;78.59;99921.23;2865024;81;21603;-73
2021/01/14 12:06:13;;;;;;;38.40;20.75;;;;;;;3.93;78.56;99922.33;2866249;83;21132;-75
2021/01/14 12:10:16;;;;;;;38.80;18.82;;;;;;;3.97;78.70;99927.81;2865532;83;21132;-75
2021/01/14 12:14:19;;;;;;;37.95;22.05;;;;;;;3.99;78.64;99928.56;2866181;83;21140;-75
2021/01/14 12:18:22;;;;;;;35.35;23.90;;;;;;;4.05;78.86;99930.81;2865832;81;21570;-74
2021/01/14 12:22:25;;;;;;;50.95;24.60;;;;;;;4.12;79.06;99945.78;2866083;82;21609;-75
2021/01/14 12:26:28;;;;;;;44.38;24.20;;;;;;;4.17;78.94;99946.83;2865987;83;21618;-74
2021/01/14 12:30:31;;;;;;;35.08;20.65;;;;;;;4.25;78.85;99952.45;2866125;82;21152;-75
2021/01/14 12:34:35;;;;;;;33.85;20.65;;;;;;;4.29;78.40;99957.45;2866174;83;21602;-75
2021/01/14 12:38:38;;;;;;;33.33;20.95;;;;;;;4.34;78.22;99965.08;2865941;83;21148;-75
2021/01/14 12:42:41;;;;;;;35.60;20.90;;;;;;;4.28;77.15;99969.38;2862885;81;21156;-75
2021/01/14 12:46:47;;;;;;;36.28;20.85;;;;;;;4.17;77.39;99973.15;2866886;82;21124;-76
2021/01/14 12:50:50;;;;;;;31.50;21.27;;;;;;;4.10;77.52;99982.71;2864534;83;21614;-75
2021/01/14 12:54:53;;;;;;;38.28;22.27;;;;;;;4.03;77.51;99991.92;2866565;83;21570;-75
2021/01/14 12:58:56;;;;;;;40.15;22.02;;;;;;;4.01;77.70;100005.65;2864450;83;21633;-75
2021/01/14 13:02:59;;;;;;;33.35;18.37;;;;;;;3.93;77.57;100006.55;2860369;82;21132;-75
2021/01/14 13:07:02;;;;;;;40.55;24.52;;;;;;;3.82;77.74;100005.86;2858213;82;21144;-75
2021/01/14 13:11:05;;;;;;;38.33;24.50;;;;;;;3.80;78.04;100004.66;2858319;83;21563;-76
2021/01/14 13:15:08;;;;;;;43.35;22.40;;;;;;;3.76;78.62;100011.48;2858307;82;21160;-77
2021/01/14 13:19:12;;;;;;;40.38;22.50;;;;;;;3.73;79.18;100009.87;2858147;82;21155;-75
2021/01/14 13:23:15;;;;;;;59.83;32.17;;;;;;;3.71;79.32;100023.13;2857929;83;21169;-76
2021/01/14 13:27:18;;;;;;;59.85;24.52;;;;;;;3.66;79.57;100019.06;2858205;83;21144;-74
2021/01/14 13:31:21;;;;;;;38.05;22.52;;;;;;;3.62;79.77;100022.81;2859645;83;21112;-76
2021/01/14 13:35:25;;;;;;;45.35;27.58;;;;;;;3.59;79.65;100025.62;2861611;82;21155;-65
2021/01/14 13:39:28;;;;;;;42.38;28.60;;;;;;;3.57;79.87;100027.02;2861753;83;21157;-63
2021/01/14 13:43:32;;;;;;;56.88;35.10;;;;;;;3.67;80.15;100029.97;2861926;81;21160;-69
2021/01/14 13:47:35;;;;;;;34.10;23.75;;;;;;;3.75;80.05;100022.95;2861870;83;21129;-67
2021/01/14 13:51:41;;;;;;;47.03;25.65;;;;;;;3.83;80.25;100030.78;2861852;83;21148;-66
2021/01/14 13:55:45;;;;;;;32.85;22.77;;;;;;;3.90;79.75;100029.96;2851787;83;21156;-69
2021/01/14 13:59:48;;;;;;;43.87;28.38;;;;;;;3.90;79.01;100043.58;2814471;83;21582;-67
2021/01/14 14:03:52;;;;;;;37.50;22.60;;;;;;;3.86;78.76;100058.23;2807862;84;21141;-68
2021/01/14 14:07:56;;;;;;;24.90;16.70;;;;;;;3.83;78.73;100055.78;2829471;83;21130;-70
2021/01/14 14:11:59;;;;;;;21.55;14.07;;;;;;;3.79;78.37;100051.64;2828527;84;21161;-69
2021/01/14 14:16:03;;;;;;;19.05;13.15;;;;;;;3.75;77.30;100066.36;2828794;84;21182;-67
2021/01/14 14:20:08;;;;;;;22.60;14.33;;;;;;;3.66;77.04;100073.85;2828555;83;21165;-68
2021/01/14 14:24:32;;;;;;;45.05;26.00;;;;;;;3.59;77.44;100074.28;2828690;83;21162;-65
2021/01/14 14:28:35;;;;;;;76.45;47.20;;;;;;;3.52;77.26;100079.86;2740036;86;21204;-66
2021/01/14 14:32:43;;;;;;;20.27;14.53;;;;;;;3.43;77.08;100079.91;2739818;86;21183;-67
2021/01/14 14:36:46;;;;;;;27.10;16.65;;;;;;;3.32;76.64;100074.86;2739790;86;21156;-70
2021/01/14 14:40:49;;;;;;;19.50;11.33;;;;;;;3.29;77.11;100085.94;2739947;86;21202;-62
2021/01/14 14:44:52;;;;;;;21.60;12.82;;;;;;;3.27;77.44;100086.97;2739928;86;21192;-62
2021/01/14 14:48:57;;;;;;;31.85;15.63;;;;;;;3.20;77.68;100089.08;2772209;85;21531;-69
2021/01/14 14:53:02;;;;;;;76.20;35.10;;;;;;;3.11;77.86;100094.81;2792052;85;21168;-63
2021/01/14 14:57:08;;;;;;;22.40;14.80;;;;;;;3.10;78.10;100098.37;2792699;85;21173;-65
2021/01/14 15:01:12;;;;;;;29.82;20.52;;;;;;;3.07;78.10;100102.48;2791661;85;21184;-62
2021/01/14 15:05:15;;;;;;;23.90;15.23;;;;;;;3.06;78.07;100102.11;2791692;84;21129;-68
2021/01/14 15:09:18;;;;;;;30.05;18.62;;;;;;;2.99;78.15;100116.90;2791851;84;21168;-69
2021/01/14 15:13:22;;;;;;;26.05;14.38;;;;;;;3.02;78.50;100107.15;2791404;85;21173;-68
2021/01/14 15:17:25;;;;;;;18.92;10.13;;;;;;;3.02;78.74;100118.98;2791503;84;21172;-70
2021/01/14 15:21:30;;;;;;;17.87;10.68;;;;;;;3.03;78.96;100117.56;2723255;85;22093;-68
2021/01/14 15:25:34;;;;;;;16.32;10.72;;;;;;;3.01;79.31;100115.48;2723627;87;21190;-70
2021/01/14 15:29:37;;;;;;;19.00;9.78;;;;;;;3.01;79.47;100126.00;2769855;85;21135;-80
2021/01/14 15:33:41;;;;;;;23.90;11.28;;;;;;;2.99;79.71;100130.03;2737304;84;21147;-78
2021/01/14 15:37:46;;;;;;;13.32;11.65;;;;;;;2.98;79.86;100135.36;2732410;85;21181;-77
2021/01/14 15:41:49;;;;;;;21.52;13.03;;;;;;;2.93;80.55;100136.08;2735023;85;21105;-79
2021/01/14 15:45:52;;;;;;;21.07;12.75;;;;;;;2.87;81.00;100131.98;2688014;87;21188;-79
2021/01/14 15:49:55;;;;;;;24.40;14.50;;;;;;;2.83;81.36;100143.11;2691196;88;21172;-78
2021/01/14 15:54:05;;;;;;;19.70;11.28;;;;;;;2.81;81.58;100136.25;2751751;86;21187;-79
2021/01/14 15:58:08;;;;;;;19.55;12.93;;;;;;;2.75;82.12;100140.49;2752035;86;21147;-78
2021/01/14 16:02:12;;;;;;;18.27;11.57;;;;;;;2.77;82.36;100134.72;2742405;85;21182;-81
2021/01/14 16:06:17;;;;;;;22.48;14.95;;;;;;;2.76;82.72;100144.36;2730483;87;21162;-78
2021/01/14 16:10:21;;;;;;;23.98;14.75;;;;;;;2.79;82.86;100138.95;2705561;87;21136;-77
2021/01/14 16:14:25;;;;;;;26.20;14.25;;;;;;;2.80;82.99;100151.63;2729948;86;21261;-80
2021/01/14 16:18:28;;;;;;;41.98;24.45;;;;;;;2.79;83.23;100153.39;2729789;86;21174;-76
2021/01/14 16:22:32;;;;;;;25.75;16.52;;;;;;;2.79;83.30;100149.94;2729838;86;21178;-75
2021/01/14 16:26:35;;;;;;;23.40;14.78;;;;;;;2.77;83.38;100141.29;2722338;86;21657;-80
2021/01/14 16:30:40;;;;;;;20.88;13.65;;;;;;;2.81;83.43;100136.25;2721446;85;21199;-78
2021/01/14 16:34:45;;;;;;;23.10;17.20;;;;;;;2.79;83.34;100141.58;2728560;85;29498;-78
2021/01/14 16:38:48;;;;;;;18.48;13.15;;;;;;;2.76;83.60;100140.42;2730316;87;21169;-77
2021/01/14 16:42:51;;;;;;;25.72;13.58;;;;;;;2.75;83.74;100140.04;2730641;87;21185;-77
2021/01/14 16:47:07;;;;;;;18.17;14.10;;;;;;;2.75;84.01;100137.41;2730364;87;21632;-77
2021/01/14 16:51:13;;;;;;;23.47;11.35;;;;;;;2.71;84.58;100139.82;2730651;87;21189;-80
2021/01/14 16:55:16;;;;;;;19.07;12.50;;;;;;;2.64;85.11;100137.97;2730881;87;21173;-76
2021/01/14 16:59:20;;;;;;;18.35;11.80;;;;;;;2.62;85.47;100140.28;2730596;87;21676;-77
2021/01/14 17:03:23;;;;;;;20.60;13.22;;;;;;;2.60;85.67;100137.75;2730789;87;21189;-77
2021/01/14 17:07:26;;;;;;;19.45;14.60;;;;;;;2.54;85.99;100138.91;2730855;87;21624;-76
2021/01/14 17:11:30;;;;;;;20.35;10.63;;;;;;;2.48;86.42;100132.66;2730671;87;21704;-79
2021/01/14 17:15:33;;;;;;;17.70;11.38;;;;;;;2.43;87.06;100138.13;2730564;87;21204;-78
2021/01/14 17:19:36;;;;;;;19.40;11.08;;;;;;;2.43;87.33;100138.58;2728121;85;21186;-77
2021/01/14 17:23:42;;;;;;;17.67;10.60;;;;;;;2.42;87.62;100143.00;2721959;87;21194;-77
2021/01/14 17:27:46;;;;;;;27.80;14.78;;;;;;;2.46;87.50;100148.95;2721881;87;21139;-76
2021/01/14 17:31:49;;;;;;;25.15;14.58;;;;;;;2.54;87.24;100165.61;2722072;87;21179;-75
2021/01/14 17:35:54;;;;;;;41.75;19.02;;;;;;;2.53;87.15;100170.03;2722272;87;21206;-77
2021/01/14 17:39:56;;;;;;;17.15;12.45;;;;;;;2.57;87.06;100160.23;2721853;87;21597;-77
2021/01/14 17:44:00;;;;;;;21.68;15.15;;;;;;;2.62;87.00;100179.22;2722491;87;21224;-77
2021/01/14 17:48:05;;;;;;;19.35;14.23;;;;;;;2.63;87.11;100178.74;2722398;86;21182;-77
2021/01/14 17:52:07;;;;;;;45.83;25.88;;;;;;;2.64;87.10;100187.88;2722204;86;21135;-76
2021/01/14 17:56:18;;;;;;;33.08;21.93;;;;;;;2.69;86.98;100192.42;2722293;87;21174;-78
2021/01/14 18:00:22;;;;;;;38.08;19.35;;;;;;;2.69;87.25;100191.11;2721856;87;21661;-77
2021/01/14 18:04:26;;;;;;;50.83;33.38;;;;;;;2.67;87.38;100196.91;2722072;87;21199;-76
2021/01/14 18:08:29;;;;;;;20.48;13.60;;;;;;;2.74;87.19;100197.89;2722292;87;21182;-77
2021/01/14 18:12:33;;;;;;;13.53;7.40;;;;;;;2.80;87.17;100198.44;2721995;87;21195;-77
2021/01/14 18:16:36;;;;;;;15.10;10.15;;;;;;;2.75;87.50;100210.97;2722271;86;21178;-77
2021/01/14 18:20:39;;;;;;;19.17;8.10;;;;;;;2.89;87.12;100205.00;2722219;87;21107;-77
2021/01/14 18:24:42;;;;;;;16.07;9.63;;;;;;;2.99;86.71;100214.58;2722254;87;21174;-77
2021/01/14 18:28:45;;;;;;;13.05;9.88;;;;;;;3.12;86.15;100208.22;2740881;86;21178;-78
2021/01/14 18:32:48;;;;;;;16.23;10.68;;;;;;;3.19;85.75;100214.02;2746945;86;21210;-72
2021/01/14 18:36:56;;;;;;;23.40;11.68;;;;;;;3.24;85.35;100222.50;2746889;86;21222;-76
2021/01/14 18:40:59;;;;;;;18.10;11.68;;;;;;;3.28;85.19;100231.47;2762909;83;21198;-74
2021/01/14 18:45:05;;;;;;;20.20;14.07;;;;;;;3.38;84.70;100236.27;2800113;85;21158;-74
2021/01/14 18:49:08;;;;;;;;;;;;;;;3.38;84.24;100235.78;2803479;85;21704;-76
2021/01/14 18:53:13;;;;;;;28.02;16.75;;;;;;;3.40;83.87;100240.97;2798853;85;20182;-73
2021/01/14 18:57:15;;;;;;;33.40;17.80;;;;;;;3.38;83.51;100250.73;2800436;85;21625;-74
2021/01/14 19:01:18;;;;;;;30.72;21.33;;;;;;;3.41;83.40;100263.22;2777838;85;21759;-75
2021/01/14 19:05:22;;;;;;;26.57;20.20;;;;;;;3.38;82.34;100261.24;2730372;85;22324;-76
2021/01/14 19:09:29;;;;;;;37.38;22.02;;;;;;;3.33;82.25;100271.99;2730308;87;21186;-75